createdAt,value
2022-09-17T00:03:41.288Z,1.67
2022-09-17T00:08:49.118Z,1.90
2022-09-17T00:13:57.302Z,2.10
2022-09-17T00:19:05.914Z,2.30
2022-09-17T00:24:14.988Z,1.70
2022-09-17T00:29:22.779Z,1.73
2022-09-17T00:34:30.503Z,1.60
2022-09-17T00:39:38.328Z,1.20
2022-09-17T00:44:49.785Z,1.40
2022-09-17T00:50:01.034Z,1.43
2022-09-17T00:55:13.106Z,1.40
2022-09-17T01:00:21.576Z,1.40
2022-09-17T01:05:32.739Z,1.33
2022-09-17T01:10:44.427Z,1.60
2022-09-17T01:15:55.467Z,1.57
2022-09-17T01:21:08.167Z,1.83
2022-09-17T01:26:19.191Z,1.60
2022-09-17T01:31:31.568Z,1.70
2022-09-17T01:36:43.341Z,1.40
2022-09-17T01:41:55.853Z,1.33
2022-09-17T01:47:06.984Z,1.50
2022-09-17T01:52:15.187Z,1.30
2022-09-17T01:57:26.171Z,1.30
2022-09-17T02:02:38.967Z,1.60
2022-09-17T02:07:49.836Z,1.67
2022-09-17T02:13:00.589Z,1.60
2022-09-17T02:18:10.593Z,1.97
2022-09-17T02:23:21.554Z,1.80
2022-09-17T02:28:33.017Z,2.00
2022-09-17T02:33:41.842Z,1.93
2022-09-17T02:38:49.642Z,1.60
2022-09-17T02:44:00.881Z,2.00
2022-09-17T02:49:13.125Z,1.73
2022-09-17T02:54:25.972Z,1.77
2022-09-17T02:59:38.259Z,2.30
2022-09-17T03:04:47.367Z,1.67
2022-09-17T03:09:55.153Z,1.80
2022-09-17T03:15:03.948Z,1.43
2022-09-17T03:20:11.897Z,1.60
2022-09-17T03:25:19.719Z,1.73
2022-09-17T03:30:27.509Z,1.60
2022-09-17T03:35:35.379Z,1.43
2022-09-17T03:40:43.203Z,1.20
2022-09-17T03:45:51.064Z,1.40
2022-09-17T03:50:58.913Z,1.40
2022-09-17T03:56:07.555Z,1.70
2022-09-17T04:01:15.523Z,1.43
2022-09-17T04:06:23.762Z,1.83
2022-09-17T04:11:31.531Z,1.77
2022-09-17T04:16:39.347Z,1.70
2022-09-17T04:21:47.205Z,2.00
2022-09-17T04:26:55.396Z,1.30
2022-09-17T04:32:03.450Z,1.87
2022-09-17T04:37:11.276Z,1.27
2022-09-17T04:42:19.562Z,1.40
2022-09-17T04:47:27.356Z,1.57
2022-09-17T04:52:35.287Z,2.00
2022-09-17T04:57:46.549Z,1.37
2022-09-17T05:02:56.262Z,1.50
2022-09-17T05:08:05.459Z,1.93
2022-09-17T05:13:13.285Z,1.93
2022-09-17T05:18:21.071Z,2.07
2022-09-17T05:23:29.145Z,1.70
2022-09-17T05:28:37.311Z,1.83
2022-09-17T05:33:45.086Z,1.50
2022-09-17T05:38:52.901Z,1.43
2022-09-17T05:44:00.883Z,1.80
2022-09-17T05:49:08.732Z,1.87
2022-09-17T05:54:16.564Z,1.63
2022-09-17T05:59:24.912Z,1.60
2022-09-17T06:04:34.931Z,1.30
2022-09-17T06:09:42.207Z,1.87
2022-09-17T06:14:50.028Z,1.90
2022-09-17T06:19:57.814Z,1.90
2022-09-17T06:25:05.985Z,2.07
2022-09-17T06:30:14.665Z,1.80
2022-09-17T06:35:22.637Z,2.20
2022-09-17T06:40:30.500Z,2.10
2022-09-17T06:45:39.557Z,2.70
2022-09-17T06:50:47.405Z,2.30
2022-09-17T06:56:03.609Z,2.63
2022-09-17T07:01:09.407Z,2.47
2022-09-17T07:06:17.655Z,2.40
2022-09-17T07:11:25.515Z,2.00
2022-09-17T07:16:35.470Z,3.13
2022-09-17T07:21:43.433Z,2.13
2022-09-17T07:26:52.003Z,2.07
2022-09-17T07:32:00.042Z,2.10
2022-09-17T07:37:07.891Z,1.73
2022-09-17T07:42:15.677Z,2.47
2022-09-17T07:47:23.492Z,2.00
2022-09-17T07:52:31.823Z,2.70
2022-09-17T07:57:41.104Z,2.40
2022-09-17T08:02:52.769Z,2.43
2022-09-17T08:08:02.891Z,2.03
2022-09-17T08:13:11.609Z,2.07
2022-09-17T08:18:20.334Z,2.17
2022-09-17T08:23:29.085Z,2.40
2022-09-17T08:28:37.773Z,2.33
2022-09-17T08:33:45.678Z,2.40
2022-09-17T08:38:55.237Z,2.20
2022-09-17T08:44:07.560Z,2.67
2022-09-17T08:49:18.556Z,2.40
2022-09-17T08:54:29.555Z,2.43
2022-09-17T08:59:40.504Z,2.43
2022-09-17T09:10:04.468Z,2.70
2022-09-17T09:15:15.836Z,2.73
2022-09-17T09:20:28.297Z,2.57
2022-09-17T09:25:39.256Z,2.50
2022-09-17T09:30:50.518Z,2.27
2022-09-17T09:35:58.742Z,2.80
2022-09-17T09:41:11.069Z,3.07
2022-09-17T09:46:22.115Z,2.90
2022-09-17T09:51:33.735Z,3.30
2022-09-17T09:56:45.758Z,2.90
2022-09-17T10:01:53.875Z,3.10
2022-09-17T10:07:03.723Z,3.30
2022-09-17T10:17:26.379Z,3.40
2022-09-17T10:22:35.308Z,3.50
2022-09-17T10:27:45.269Z,3.33
2022-09-17T10:32:57.278Z,3.90
2022-09-17T10:38:05.065Z,3.30
2022-09-17T10:43:17.593Z,3.60
2022-09-17T10:48:25.920Z,3.10
2022-09-17T10:53:35.620Z,3.10
2022-09-17T10:58:46.590Z,2.43
2022-09-17T11:09:21.289Z,2.03
2022-09-17T11:14:34.024Z,2.17
2022-09-17T11:19:46.305Z,1.77
2022-09-17T11:24:57.339Z,1.60
2022-09-17T11:30:08.227Z,1.80
2022-09-17T11:35:18.709Z,1.40
2022-09-17T11:40:29.901Z,1.70
2022-09-17T11:45:39.729Z,1.40
2022-09-17T11:50:50.691Z,1.80
2022-09-17T11:56:01.990Z,1.67
2022-09-17T12:01:13.255Z,1.90
2022-09-17T12:06:24.555Z,1.47
2022-09-17T12:11:35.450Z,1.53
2022-09-17T12:16:44.828Z,1.20
2022-09-17T12:21:57.041Z,1.40
2022-09-17T12:32:37.125Z,1.20
2022-09-17T12:43:04.836Z,1.30
2022-09-17T12:48:15.925Z,1.20
2022-09-17T12:53:26.941Z,1.00
2022-09-17T12:58:39.759Z,1.23
2022-09-17T13:03:52.015Z,1.00
2022-09-17T13:09:02.939Z,0.80
2022-09-17T13:14:15.163Z,1.30
2022-09-17T13:19:36.456Z,0.77
2022-09-17T13:24:47.181Z,0.73
2022-09-17T13:29:59.633Z,0.70
2022-09-17T13:40:27.414Z,0.70
2022-09-17T13:45:36.554Z,0.70
2022-09-17T13:50:49.316Z,1.00
2022-09-17T13:55:58.878Z,0.80
2022-09-17T14:01:09.199Z,0.90
2022-09-17T14:11:33.980Z,1.80
2022-09-17T14:16:47.110Z,1.20
2022-09-17T14:27:19.258Z,1.03
2022-09-17T14:32:31.456Z,1.30
2022-09-17T14:37:39.964Z,1.27
2022-09-17T14:42:48.318Z,1.40
2022-09-17T14:47:59.340Z,1.70
2022-09-17T14:53:09.089Z,0.80
2022-09-17T14:58:20.209Z,1.20
2022-09-17T15:03:28.496Z,1.10
2022-09-17T15:08:36.429Z,1.07
2022-09-17T15:13:47.426Z,1.17
2022-09-17T15:18:56.706Z,0.97
2022-09-17T15:24:09.824Z,1.00
2022-09-17T15:29:17.667Z,1.27
2022-09-17T15:34:25.563Z,1.40
2022-09-17T15:39:35.654Z,1.30
2022-09-17T15:44:43.470Z,1.13
2022-09-17T15:49:54.530Z,1.87
2022-09-17T15:55:02.605Z,1.47
2022-09-17T16:00:14.131Z,1.43
2022-09-17T16:05:27.854Z,0.80
2022-09-17T16:10:35.760Z,0.73
2022-09-17T16:15:43.801Z,0.50
2022-09-17T16:20:51.694Z,1.00
2022-09-17T16:25:59.658Z,0.90
2022-09-17T16:31:08.627Z,0.77
2022-09-17T16:36:18.844Z,1.00
2022-09-17T16:41:26.672Z,0.73
2022-09-17T16:46:34.995Z,0.90
2022-09-17T16:51:43.380Z,0.83
2022-09-17T16:56:52.245Z,1.13
2022-09-17T17:02:02.166Z,1.10
2022-09-17T17:07:11.320Z,1.43
2022-09-17T17:12:19.653Z,1.00
2022-09-17T17:17:27.539Z,1.40
2022-09-17T17:22:35.980Z,1.30
2022-09-17T17:27:45.341Z,1.37
2022-09-17T17:32:53.787Z,1.30
2022-09-17T17:38:03.180Z,1.57
2022-09-17T17:43:16.350Z,1.10
2022-09-17T17:48:24.244Z,1.30
2022-09-17T17:53:32.817Z,1.17
2022-09-17T17:58:40.792Z,0.90
2022-09-17T18:03:49.818Z,1.10
2022-09-17T18:08:57.675Z,1.63
2022-09-17T18:14:05.535Z,1.50
2022-09-17T18:19:17.117Z,1.27
2022-09-17T18:24:25.080Z,1.13
2022-09-17T18:29:33.227Z,2.50
2022-09-17T18:34:42.923Z,2.10
2022-09-17T18:40:00.330Z,2.03
2022-09-17T18:45:01.800Z,1.50
2022-09-17T18:50:09.989Z,1.47
2022-09-17T18:55:18.119Z,1.40
2022-09-17T19:00:27.468Z,1.40
2022-09-17T19:05:35.528Z,1.47
2022-09-17T19:10:46.271Z,2.40
2022-09-17T19:15:57.461Z,2.53
2022-09-17T19:21:07.536Z,2.13
2022-09-17T19:26:18.572Z,2.63
2022-09-17T19:31:28.671Z,1.83
2022-09-17T19:36:37.958Z,2.10
2022-09-17T19:41:46.043Z,1.97
2022-09-17T19:46:54.883Z,1.93
2022-09-17T19:52:03.252Z,1.93
2022-09-17T19:57:11.291Z,1.97
2022-09-17T20:02:20.060Z,2.50
2022-09-17T20:07:30.473Z,1.80
2022-09-17T20:12:39.423Z,1.73
2022-09-17T20:17:49.857Z,1.57
2022-09-17T20:22:57.929Z,1.50
2022-09-17T20:28:06.843Z,1.70
2022-09-17T20:33:18.935Z,1.73
2022-09-17T20:43:38.119Z,2.00
2022-09-17T20:48:46.265Z,1.90
2022-09-17T20:53:54.405Z,2.03
2022-09-17T20:59:07.155Z,2.03
2022-09-17T21:04:17.106Z,3.77
2022-09-17T21:09:25.225Z,2.17
2022-09-17T21:14:33.158Z,2.43
2022-09-17T21:19:41.503Z,2.33
2022-09-17T21:24:49.617Z,2.50
2022-09-17T21:29:58.830Z,2.13
2022-09-17T21:35:07.574Z,2.50
2022-09-17T21:40:16.460Z,2.33
2022-09-17T21:45:25.149Z,2.30
2022-09-17T21:50:33.176Z,2.80
2022-09-17T21:55:40.934Z,1.80
2022-09-17T22:00:49.771Z,2.40
2022-09-17T22:06:01.221Z,2.00
2022-09-17T22:11:11.826Z,2.30
2022-09-17T22:16:19.683Z,1.50
2022-09-17T22:21:28.629Z,2.30
2022-09-17T22:26:37.812Z,2.33
2022-09-17T22:31:46.019Z,1.77
2022-09-17T22:36:53.862Z,1.83
2022-09-17T22:42:01.904Z,2.20
2022-09-17T22:47:10.031Z,1.63
2022-09-17T22:52:17.852Z,1.70
2022-09-17T22:57:25.626Z,1.63
2022-09-17T23:02:33.517Z,1.97
2022-09-17T23:07:41.474Z,2.10
2022-09-17T23:12:49.319Z,1.83
2022-09-17T23:17:57.798Z,1.77
2022-09-17T23:23:05.839Z,1.47
2022-09-17T23:28:13.611Z,1.60
2022-09-17T23:33:21.388Z,1.60
2022-09-17T23:38:29.695Z,1.77
2022-09-17T23:43:37.484Z,1.80
2022-09-17T23:48:45.607Z,1.37
2022-09-17T23:53:53.533Z,1.47
2022-09-17T23:59:01.989Z,1.83
